createdAt,value
2022-09-18T00:05:43.275Z,1003.324
2022-09-18T00:36:01.837Z,1003.165
2022-09-18T01:06:19.809Z,1003.2460000000001
2022-09-18T01:36:37.721Z,1003.138
2022-09-18T02:06:54.418Z,1003.1310000000001
2022-09-18T02:37:12.832Z,1003.215
2022-09-18T03:07:31.627Z,1003.061
2022-09-18T03:37:49.521Z,1002.8639999999999
2022-09-18T04:08:06.767Z,1003.0160000000001
2022-09-18T04:38:23.527Z,1003.0419999999999
2022-09-18T05:08:42.783Z,1003.049
2022-09-18T05:38:59.417Z,1003.0930000000001
2022-09-18T06:09:17.918Z,1003.0010000000001
2022-09-18T06:39:36.006Z,1003.5169999999999
2022-09-18T07:09:57.449Z,1003.617
2022-09-18T07:40:15.005Z,1003.456
2022-09-18T08:10:35.788Z,1003.5269999999999
2022-09-18T08:40:56.526Z,1003.51
2022-09-18T09:11:17.111Z,1003.375
2022-09-18T09:41:35.884Z,1003.434
2022-09-18T10:11:57.642Z,1003.51
2022-09-18T10:42:13.060Z,1003.2660000000001
2022-09-18T11:12:30.490Z,1003.154
2022-09-18T11:42:49.810Z,1003.2310000000001
2022-09-18T12:13:06.288Z,1003.028
2022-09-18T12:43:24.551Z,1002.703
2022-09-18T13:13:45.161Z,1002.612
2022-09-18T13:44:06.075Z,1002.309
2022-09-18T14:14:22.841Z,1002.3660000000001
2022-09-18T14:44:39.226Z,1002.17
2022-09-18T15:14:56.284Z,1001.932
2022-09-18T15:45:12.423Z,1001.747
2022-09-18T16:15:30.487Z,1001.709
2022-09-18T16:45:49.372Z,1001.757
2022-09-18T17:16:07.402Z,1001.8739999999999
2022-09-18T17:46:23.578Z,1001.81
2022-09-18T18:16:40.739Z,1001.737
2022-09-18T18:46:58.623Z,1001.701
2022-09-18T19:17:15.952Z,1002.3860000000001
2022-09-18T19:47:34.624Z,1002.702
2022-09-18T20:17:51.803Z,1003.197
2022-09-18T20:48:16.817Z,1003.0419999999999
2022-09-18T21:18:35.206Z,1002.7289999999999
2022-09-18T21:48:51.370Z,1003.029
2022-09-18T22:19:10.048Z,1003.15
2022-09-18T22:49:28.037Z,1003.453
2022-09-18T23:19:45.705Z,1003.569
2022-09-18T23:50:03.616Z,1003.5189999999999
